createdAt,value
2023-01-09T00:00:38.038Z,3.70
2023-01-09T00:03:05.612Z,3.50
2023-01-09T00:05:33.232Z,3.58
2023-01-09T00:08:00.843Z,3.10
2023-01-09T00:10:28.553Z,3.00
2023-01-09T00:12:57.550Z,3.00
2023-01-09T00:15:25.146Z,3.00
2023-01-09T00:17:52.735Z,3.30
2023-01-09T00:20:20.421Z,2.90
2023-01-09T00:22:47.984Z,2.53
2023-01-09T00:25:15.701Z,2.70
2023-01-09T00:27:43.267Z,2.33
2023-01-09T00:30:13.314Z,2.00
2023-01-09T00:32:41.502Z,1.80
2023-01-09T00:35:12.836Z,2.10
2023-01-09T00:37:40.481Z,1.60
2023-01-09T00:40:08.723Z,0.77
2023-01-09T00:42:36.766Z,0.80
2023-01-09T00:45:08.938Z,0.60
2023-01-09T00:47:42.769Z,0.57
2023-01-09T00:50:14.808Z,0.60
2023-01-09T00:52:43.471Z,0.50
2023-01-09T00:55:11.550Z,0.60
2023-01-09T00:57:39.299Z,0.50
2023-01-09T01:00:09.337Z,0.50
2023-01-09T01:02:38.392Z,0.57
2023-01-09T01:05:24.482Z,0.50
2023-01-09T01:07:52.115Z,0.60
2023-01-09T01:10:21.436Z,0.50
2023-01-09T01:12:49.839Z,0.40
2023-01-09T01:15:19.710Z,0.60
2023-01-09T01:17:49.125Z,0.55
2023-01-09T01:20:19.861Z,0.43
2023-01-09T01:22:47.943Z,0.30
2023-01-09T01:25:17.429Z,0.30
2023-01-09T01:27:45.587Z,0.40
2023-01-09T01:30:15.957Z,0.40
2023-01-09T01:32:44.223Z,0.40
2023-01-09T01:35:13.232Z,0.40
2023-01-09T01:37:41.087Z,0.30
2023-01-09T01:40:11.798Z,0.32
2023-01-09T01:42:46.590Z,0.47
2023-01-09T01:45:16.635Z,0.50
2023-01-09T01:47:51.232Z,0.30
2023-01-09T01:50:28.612Z,0.40
2023-01-09T01:53:06.566Z,0.43
2023-01-09T01:55:36.078Z,0.40
2023-01-09T01:58:08.021Z,0.40
2023-01-09T02:00:39.827Z,0.30
2023-01-09T02:03:08.511Z,0.30
2023-01-09T02:05:39.863Z,0.33
2023-01-09T02:08:08.378Z,0.40
2023-01-09T02:10:35.947Z,0.40
2023-01-09T02:13:04.449Z,0.43
2023-01-09T02:15:37.874Z,0.43
2023-01-09T02:18:28.303Z,0.50
2023-01-09T02:21:05.253Z,0.40
2023-01-09T02:24:03.425Z,0.40
2023-01-09T02:27:04.862Z,0.40
2023-01-09T02:30:10.991Z,0.40
2023-01-09T02:32:49.807Z,0.50
2023-01-09T02:35:36.714Z,0.40
2023-01-09T02:38:15.046Z,0.40
2023-01-09T02:40:47.948Z,0.47
2023-01-09T02:43:16.213Z,0.50
2023-01-09T02:45:43.839Z,0.50
2023-01-09T02:48:13.224Z,0.45
2023-01-09T02:50:44.572Z,0.32
2023-01-09T02:53:53.959Z,0.30
2023-01-09T02:56:36.596Z,0.33
2023-01-09T02:59:25.719Z,0.40
2023-01-09T03:02:15.216Z,0.30
2023-01-09T03:04:54.630Z,0.30
2023-01-09T03:07:26.512Z,0.40
2023-01-09T03:10:01.207Z,0.30
2023-01-09T03:12:33.019Z,0.38
2023-01-09T03:15:03.646Z,0.30
2023-01-09T03:17:38.087Z,0.30
2023-01-09T03:20:11.230Z,0.30
2023-01-09T03:22:40.872Z,0.30
2023-01-09T03:25:09.196Z,0.30
2023-01-09T03:27:36.891Z,0.30
2023-01-09T03:30:05.102Z,0.20
2023-01-09T03:32:32.685Z,0.40
2023-01-09T03:35:01.879Z,0.50
2023-01-09T03:37:30.781Z,0.50
2023-01-09T03:39:58.361Z,0.40
2023-01-09T03:42:25.951Z,0.47
2023-01-09T03:44:53.626Z,0.50
2023-01-09T03:47:21.246Z,0.40
2023-01-09T03:49:48.865Z,0.40
2023-01-09T03:52:16.524Z,0.45
2023-01-09T03:54:45.464Z,0.43
2023-01-09T03:57:13.073Z,0.43
2023-01-09T03:59:40.819Z,0.32
2023-01-09T04:02:08.628Z,0.40
2023-01-09T04:04:36.324Z,0.30
2023-01-09T04:07:03.860Z,0.30
2023-01-09T04:09:31.593Z,0.35
2023-01-09T04:12:00.561Z,0.40
2023-01-09T04:14:28.162Z,0.47
2023-01-09T04:16:55.760Z,0.40
2023-01-09T04:19:23.317Z,0.30
2023-01-09T04:21:50.874Z,0.40
2023-01-09T04:24:18.510Z,0.40
2023-01-09T04:26:46.124Z,0.30
2023-01-09T04:29:15.044Z,0.30
2023-01-09T04:31:42.678Z,0.45
2023-01-09T04:34:10.294Z,0.40
2023-01-09T04:36:38.749Z,0.50
2023-01-09T04:39:06.759Z,0.40
2023-01-09T04:41:52.471Z,0.30
2023-01-09T04:44:26.116Z,0.52
2023-01-09T04:46:54.978Z,0.52
2023-01-09T04:49:22.887Z,0.43
2023-01-09T04:51:50.962Z,0.50
2023-01-09T04:54:18.738Z,0.40
2023-01-09T04:56:46.433Z,0.40
2023-01-09T04:59:14.139Z,0.35
2023-01-09T05:01:43.136Z,0.57
2023-01-09T05:04:11.143Z,0.50
2023-01-09T05:06:38.817Z,0.50
2023-01-09T05:09:06.651Z,0.50
2023-01-09T05:11:34.299Z,0.40
2023-01-09T05:14:01.840Z,0.50
2023-01-09T05:16:30.813Z,0.50
2023-01-09T05:19:00.568Z,0.47
2023-01-09T05:21:28.850Z,0.50
2023-01-09T05:23:56.506Z,0.70
2023-01-09T05:26:24.917Z,0.50
2023-01-09T05:28:52.524Z,0.60
2023-01-09T05:31:22.277Z,0.70
2023-01-09T05:33:50.142Z,0.70
2023-01-09T05:36:19.003Z,0.52
2023-01-09T05:38:46.675Z,0.60
2023-01-09T05:41:14.217Z,0.80
2023-01-09T05:43:41.946Z,0.70
2023-01-09T05:46:09.769Z,0.70
2023-01-09T05:48:37.965Z,0.88
2023-01-09T05:51:05.715Z,0.83
2023-01-09T05:53:34.655Z,1.00
2023-01-09T05:56:02.218Z,1.02
2023-01-09T05:58:29.882Z,1.30
2023-01-09T06:00:57.525Z,1.00
2023-01-09T06:03:25.090Z,1.10
2023-01-09T06:05:52.751Z,1.00
2023-01-09T06:08:20.331Z,1.15
2023-01-09T06:10:49.217Z,1.13
2023-01-09T06:13:16.814Z,1.27
2023-01-09T06:15:44.422Z,0.95
2023-01-09T06:18:12.049Z,1.17
2023-01-09T06:20:39.673Z,1.10
2023-01-09T06:23:07.271Z,1.20
2023-01-09T06:25:35.079Z,1.10
2023-01-09T06:28:04.448Z,1.00
2023-01-09T06:30:32.024Z,1.50
2023-01-09T06:32:59.648Z,0.90
2023-01-09T06:35:27.335Z,1.30
2023-01-09T06:37:54.915Z,1.20
2023-01-09T06:40:22.476Z,1.25
2023-01-09T06:42:50.559Z,1.85
2023-01-09T06:45:19.620Z,1.60
2023-01-09T06:47:47.241Z,1.20
2023-01-09T06:50:14.903Z,1.92
2023-01-09T06:52:42.500Z,2.00
2023-01-09T06:55:10.581Z,1.10
2023-01-09T06:57:38.123Z,2.20
2023-01-09T07:00:06.662Z,1.23
2023-01-09T07:02:35.738Z,1.67
2023-01-09T07:05:07.506Z,1.83
2023-01-09T07:07:35.547Z,2.73
2023-01-09T07:10:03.260Z,2.70
2023-01-09T07:12:30.851Z,2.80
2023-01-09T07:14:59.029Z,1.65
2023-01-09T07:17:26.624Z,1.23
2023-01-09T07:19:55.669Z,0.90
2023-01-09T07:22:23.441Z,1.35
2023-01-09T07:24:51.028Z,1.42
2023-01-09T07:27:18.621Z,1.30
2023-01-09T07:29:46.184Z,1.30
2023-01-09T07:32:13.806Z,1.00
2023-01-09T07:34:41.456Z,1.10
2023-01-09T07:37:10.353Z,0.90
2023-01-09T07:39:37.900Z,0.65
2023-01-09T07:42:05.514Z,0.80
2023-01-09T07:44:34.377Z,0.70
2023-01-09T07:47:02.021Z,0.90
2023-01-09T07:49:29.634Z,0.60
2023-01-09T07:51:57.243Z,0.82
2023-01-09T07:54:26.217Z,0.80
2023-01-09T07:56:53.971Z,0.73
2023-01-09T07:59:21.784Z,0.88
2023-01-09T08:01:49.477Z,0.80
2023-01-09T08:04:17.256Z,0.90
2023-01-09T08:06:44.859Z,0.87
2023-01-09T08:09:13.820Z,0.75
2023-01-09T08:11:42.816Z,0.88
2023-01-09T08:14:10.531Z,0.90
2023-01-09T08:16:38.119Z,0.80
2023-01-09T08:19:06.445Z,0.88
2023-01-09T08:21:34.223Z,0.95
2023-01-09T08:24:01.871Z,0.80
2023-01-09T08:26:29.440Z,0.70
2023-01-09T08:28:58.402Z,0.90
2023-01-09T08:31:26.045Z,0.70
2023-01-09T08:33:53.784Z,0.70
2023-01-09T08:36:21.399Z,0.70
2023-01-09T08:38:48.984Z,0.47
2023-01-09T08:41:39.530Z,0.70
2023-01-09T08:44:26.357Z,0.70
2023-01-09T08:47:09.322Z,0.80
2023-01-09T08:49:38.578Z,0.53
2023-01-09T08:52:07.464Z,0.57
2023-01-09T08:54:36.825Z,0.70
2023-01-09T08:57:05.001Z,0.77
2023-01-09T08:59:34.328Z,0.63
2023-01-09T09:02:02.022Z,0.70
2023-01-09T09:04:29.747Z,0.90
2023-01-09T09:06:57.308Z,0.45
2023-01-09T09:09:25.680Z,0.80
2023-01-09T09:11:53.334Z,0.60
2023-01-09T09:14:38.399Z,0.68
2023-01-09T09:17:07.382Z,1.00
2023-01-09T09:19:35.146Z,0.90
2023-01-09T09:22:02.799Z,0.70
2023-01-09T09:24:30.410Z,1.20
2023-01-09T09:26:58.268Z,0.90
2023-01-09T09:29:25.930Z,1.10
2023-01-09T09:31:53.616Z,0.73
2023-01-09T09:34:23.291Z,1.15
2023-01-09T09:36:50.893Z,1.50
2023-01-09T09:39:18.683Z,0.85
2023-01-09T09:42:25.557Z,0.50
2023-01-09T09:45:11.325Z,0.60
2023-01-09T09:47:48.265Z,0.60
2023-01-09T09:50:45.750Z,0.60
2023-01-09T09:53:19.832Z,0.60
2023-01-09T09:55:50.780Z,0.60
2023-01-09T09:58:26.031Z,0.50
2023-01-09T10:00:54.524Z,0.70
2023-01-09T10:03:33.998Z,0.52
2023-01-09T10:06:08.578Z,0.40
2023-01-09T10:08:46.373Z,0.70
2023-01-09T10:11:18.853Z,0.60
2023-01-09T10:14:05.947Z,0.73
2023-01-09T10:16:56.183Z,1.02
2023-01-09T10:19:38.554Z,0.70
2023-01-09T10:22:18.467Z,0.60
2023-01-09T10:24:59.979Z,0.68
2023-01-09T10:27:40.871Z,0.70
2023-01-09T10:30:27.847Z,0.70
2023-01-09T10:33:07.703Z,0.60
2023-01-09T10:35:51.795Z,0.65
2023-01-09T10:38:26.372Z,0.60
2023-01-09T10:41:01.697Z,0.73
2023-01-09T10:43:35.582Z,0.80
2023-01-09T10:46:07.018Z,0.63
2023-01-09T10:48:36.730Z,0.60
2023-01-09T10:51:14.096Z,0.90
2023-01-09T10:53:46.479Z,0.57
2023-01-09T10:56:20.892Z,0.60
2023-01-09T10:58:49.404Z,0.70
2023-01-09T11:01:20.782Z,0.68
2023-01-09T11:03:48.393Z,0.50
2023-01-09T11:06:22.755Z,0.60
2023-01-09T11:08:56.452Z,0.40
2023-01-09T11:11:35.037Z,0.50
2023-01-09T11:14:08.251Z,0.90
2023-01-09T11:16:35.919Z,0.60
2023-01-09T11:19:03.743Z,0.55
2023-01-09T11:21:35.856Z,0.50
2023-01-09T11:24:29.492Z,0.60
2023-01-09T11:27:23.603Z,0.60
2023-01-09T11:30:14.119Z,0.40
2023-01-09T11:32:42.176Z,0.57
2023-01-09T11:35:18.780Z,0.50
2023-01-09T11:37:48.339Z,0.55
2023-01-09T11:40:22.759Z,0.50
2023-01-09T11:43:06.053Z,0.40
2023-01-09T11:45:36.798Z,0.40
2023-01-09T11:48:18.511Z,0.75
2023-01-09T11:50:56.005Z,0.70
2023-01-09T11:53:24.532Z,0.70
2023-01-09T11:56:00.929Z,0.50
2023-01-09T11:58:33.276Z,0.50
2023-01-09T12:01:13.420Z,0.55
2023-01-09T12:04:00.370Z,0.43
2023-01-09T12:06:35.299Z,0.30
2023-01-09T12:09:07.528Z,0.38
2023-01-09T12:11:44.827Z,0.40
2023-01-09T12:14:33.203Z,0.35
2023-01-09T12:17:36.221Z,0.50
2023-01-09T12:20:22.155Z,0.40
2023-01-09T12:22:57.851Z,0.45
2023-01-09T12:25:39.603Z,0.40
2023-01-09T12:28:26.836Z,0.35
2023-01-09T12:31:04.210Z,0.40
2023-01-09T12:33:41.591Z,0.50
2023-01-09T12:36:23.235Z,0.40
2023-01-09T12:38:56.054Z,0.35
2023-01-09T12:41:54.598Z,0.50
2023-01-09T12:44:41.018Z,0.40
2023-01-09T12:47:25.979Z,0.47
2023-01-09T12:50:03.010Z,0.60
2023-01-09T12:52:36.007Z,0.60
2023-01-09T12:55:14.052Z,0.50
2023-01-09T12:57:44.989Z,0.43
2023-01-09T13:00:19.706Z,0.55
2023-01-09T13:03:03.673Z,0.37
2023-01-09T13:05:38.237Z,0.30
2023-01-09T13:08:09.411Z,0.90
2023-01-09T13:10:42.110Z,1.00
2023-01-09T13:13:17.896Z,0.60
2023-01-09T13:15:51.940Z,0.50
2023-01-09T13:18:23.939Z,0.50
2023-01-09T13:20:53.859Z,0.50
2023-01-09T13:23:29.276Z,0.50
2023-01-09T13:26:00.927Z,0.70
2023-01-09T13:28:33.391Z,0.70
2023-01-09T13:31:27.776Z,0.60
2023-01-09T13:33:58.958Z,0.80
2023-01-09T13:36:29.375Z,0.70
2023-01-09T13:38:58.910Z,1.20
2023-01-09T13:41:45.879Z,0.70
2023-01-09T13:44:28.418Z,0.70
2023-01-09T13:46:59.371Z,0.70
2023-01-09T13:49:31.872Z,0.80
2023-01-09T13:52:02.639Z,0.68
2023-01-09T13:55:07.696Z,0.60
2023-01-09T13:57:36.560Z,0.80
2023-01-09T14:00:44.590Z,0.70
2023-01-09T14:03:22.572Z,1.20
2023-01-09T14:06:12.933Z,1.20
2023-01-09T14:08:42.732Z,1.80
2023-01-09T14:11:18.450Z,1.02
2023-01-09T14:13:47.933Z,1.70
2023-01-09T14:16:23.619Z,0.90
2023-01-09T14:18:54.983Z,2.22
2023-01-09T14:21:22.620Z,2.25
2023-01-09T14:23:59.226Z,0.80
2023-01-09T14:26:44.474Z,0.90
2023-01-09T14:29:44.651Z,1.00
2023-01-09T14:32:43.831Z,2.40
2023-01-09T14:35:26.859Z,0.80
2023-01-09T14:38:05.785Z,1.70
2023-01-09T14:40:35.358Z,1.30
2023-01-09T14:43:17.915Z,1.10
2023-01-09T14:45:50.002Z,4.22
2023-01-09T14:48:18.107Z,1.23
2023-01-09T14:50:55.070Z,1.30
2023-01-09T14:53:25.489Z,1.38
2023-01-09T14:55:57.970Z,1.70
2023-01-09T14:58:28.272Z,2.25
2023-01-09T15:01:01.386Z,3.80
2023-01-09T15:03:32.922Z,4.25
2023-01-09T15:06:02.408Z,2.65
2023-01-09T15:08:30.708Z,2.05
2023-01-09T15:11:00.197Z,1.63
2023-01-09T15:13:32.950Z,1.10
2023-01-09T15:16:01.744Z,1.47
2023-01-09T15:18:32.872Z,2.20
2023-01-09T15:21:03.835Z,1.57
2023-01-09T15:23:32.346Z,1.50
2023-01-09T15:26:14.256Z,0.75
2023-01-09T15:28:43.953Z,1.00
2023-01-09T15:31:16.267Z,0.60
2023-01-09T15:33:45.933Z,0.80
2023-01-09T15:36:19.059Z,0.70
2023-01-09T15:38:47.666Z,0.90
2023-01-09T15:41:35.086Z,0.70
2023-01-09T15:44:04.839Z,1.10
2023-01-09T15:46:32.904Z,1.40
2023-01-09T15:49:01.455Z,1.80
2023-01-09T15:51:33.283Z,1.00
2023-01-09T15:54:01.153Z,0.93
2023-01-09T15:56:30.717Z,0.95
2023-01-09T15:58:59.678Z,0.80
2023-01-09T16:01:30.853Z,0.90
2023-01-09T16:04:07.543Z,0.80
2023-01-09T16:06:39.331Z,1.52
2023-01-09T16:09:17.149Z,1.10
2023-01-09T16:11:48.248Z,0.82
2023-01-09T16:14:21.075Z,0.90
2023-01-09T16:16:51.683Z,0.73
2023-01-09T16:19:33.961Z,0.70
2023-01-09T16:22:04.930Z,1.10
2023-01-09T16:24:40.849Z,1.00
2023-01-09T16:27:23.810Z,0.70
2023-01-09T16:29:57.615Z,1.35
2023-01-09T16:32:28.246Z,1.35
2023-01-09T16:34:57.324Z,1.13
2023-01-09T16:37:27.150Z,1.20
2023-01-09T16:40:36.564Z,1.10
2023-01-09T16:43:08.458Z,0.90
2023-01-09T16:45:38.272Z,1.35
2023-01-09T16:48:13.611Z,0.80
2023-01-09T16:50:41.721Z,1.60
2023-01-09T16:53:15.905Z,0.95
2023-01-09T16:55:43.645Z,0.52
2023-01-09T16:58:16.408Z,0.60
2023-01-09T17:00:45.408Z,1.10
2023-01-09T17:03:13.451Z,1.10
2023-01-09T17:05:41.067Z,1.15
2023-01-09T17:08:20.773Z,0.83
2023-01-09T17:10:48.414Z,3.53
2023-01-09T17:13:16.037Z,4.15
2023-01-09T17:15:44.318Z,16.88
2023-01-09T17:18:16.120Z,5.38
2023-01-09T17:20:45.782Z,3.70
2023-01-09T17:23:13.641Z,1.77
2023-01-09T17:26:01.803Z,1.20
2023-01-09T17:28:33.772Z,2.80
2023-01-09T17:31:02.060Z,1.27
2023-01-09T17:33:29.645Z,1.38
2023-01-09T17:35:57.729Z,2.92
2023-01-09T17:38:25.531Z,3.28
2023-01-09T17:40:55.660Z,2.85
2023-01-09T17:43:23.386Z,1.95
2023-01-09T17:45:51.492Z,3.78
2023-01-09T17:48:21.483Z,1.60
2023-01-09T17:50:50.057Z,2.22
2023-01-09T17:53:20.512Z,3.13
2023-01-09T17:55:48.175Z,2.30
2023-01-09T17:58:28.983Z,3.17
2023-01-09T18:00:57.226Z,7.25
2023-01-09T18:03:30.873Z,4.78
2023-01-09T18:05:58.641Z,2.50
2023-01-09T18:08:26.266Z,5.72
2023-01-09T18:10:53.900Z,7.32
2023-01-09T18:13:21.581Z,22.88
2023-01-09T18:15:50.572Z,6.10
2023-01-09T18:18:19.956Z,5.07
2023-01-09T18:20:47.663Z,7.25
2023-01-09T18:23:16.355Z,2.92
2023-01-09T18:25:44.519Z,1.80
2023-01-09T18:28:15.061Z,6.70
2023-01-09T18:30:45.000Z,9.63
2023-01-09T18:33:14.478Z,3.15
2023-01-09T18:35:42.593Z,5.88
2023-01-09T18:38:10.667Z,3.38
2023-01-09T18:40:38.519Z,4.43
2023-01-09T18:43:07.767Z,2.83
2023-01-09T18:45:35.780Z,3.10
2023-01-09T18:48:03.450Z,6.53
2023-01-09T18:50:32.342Z,6.63
2023-01-09T18:53:00.414Z,19.52
2023-01-09T18:55:28.172Z,14.68
2023-01-09T18:57:56.779Z,9.10
2023-01-09T19:00:25.161Z,12.32
2023-01-09T19:02:52.999Z,4.72
2023-01-09T19:05:20.698Z,6.80
2023-01-09T19:07:49.933Z,6.30
2023-01-09T19:10:18.376Z,4.80
2023-01-09T19:12:46.101Z,5.18
2023-01-09T19:15:13.854Z,4.25
2023-01-09T19:17:41.895Z,2.60
2023-01-09T19:20:10.841Z,4.80
2023-01-09T19:22:38.544Z,5.37
2023-01-09T19:25:08.522Z,1.92
2023-01-09T19:27:36.220Z,2.03
2023-01-09T19:30:03.937Z,2.17
2023-01-09T19:32:31.983Z,2.90
2023-01-09T19:34:59.928Z,2.45
2023-01-09T19:37:27.901Z,5.55
2023-01-09T19:39:55.503Z,2.60
2023-01-09T19:42:24.512Z,2.20
2023-01-09T19:44:52.190Z,1.95
2023-01-09T19:47:19.878Z,2.70
2023-01-09T19:49:47.614Z,2.30
2023-01-09T19:52:15.581Z,2.10
2023-01-09T19:54:43.347Z,2.10
2023-01-09T19:57:11.153Z,1.95
2023-01-09T19:59:40.642Z,2.10
2023-01-09T20:02:10.625Z,1.92
2023-01-09T20:04:38.641Z,1.80
2023-01-09T20:07:06.441Z,2.13
2023-01-09T20:09:34.120Z,1.30
2023-01-09T20:12:03.949Z,1.13
2023-01-09T20:14:31.579Z,2.55
2023-01-09T20:17:04.190Z,3.83
2023-01-09T20:19:32.658Z,1.60
2023-01-09T20:22:01.203Z,2.13
2023-01-09T20:24:29.000Z,6.15
2023-01-09T20:26:56.661Z,6.32
2023-01-09T20:29:24.908Z,11.65
2023-01-09T20:31:52.539Z,6.95
2023-01-09T20:34:21.541Z,14.05
2023-01-09T20:36:49.456Z,13.40
2023-01-09T20:39:17.124Z,6.72
2023-01-09T20:41:44.727Z,7.00
2023-01-09T20:44:14.509Z,3.60
2023-01-09T20:46:44.708Z,5.60
2023-01-09T20:49:13.986Z,19.58
2023-01-09T20:51:46.019Z,1.90
2023-01-09T20:54:14.044Z,2.72
2023-01-09T20:56:41.808Z,2.92
2023-01-09T20:59:13.014Z,1.97
2023-01-09T21:01:41.486Z,1.00
2023-01-09T21:04:09.646Z,1.38
2023-01-09T21:06:37.325Z,2.67
2023-01-09T21:09:06.736Z,15.75
2023-01-09T21:11:34.554Z,1.55
2023-01-09T21:14:02.514Z,4.55
2023-01-09T21:16:30.230Z,12.63
2023-01-09T21:18:57.820Z,5.20
2023-01-09T21:22:17.135Z,8.68
2023-01-09T21:24:49.647Z,2.80
2023-01-09T21:27:17.850Z,13.27
2023-01-09T21:29:46.609Z,18.65
2023-01-09T21:32:14.373Z,6.40
2023-01-09T21:34:42.152Z,3.60
2023-01-09T21:37:09.819Z,7.50
2023-01-09T21:39:37.520Z,6.00
2023-01-09T21:42:24.376Z,3.83
2023-01-09T21:45:24.364Z,8.85
2023-01-09T21:47:52.081Z,6.75
2023-01-09T21:50:19.812Z,3.03
2023-01-09T21:52:47.389Z,2.38
2023-01-09T21:55:15.162Z,4.33
2023-01-09T21:57:44.068Z,5.35
2023-01-09T22:00:12.821Z,6.03
2023-01-09T22:02:41.064Z,10.70
2023-01-09T22:05:09.156Z,1.55
2023-01-09T22:07:37.112Z,10.50
2023-01-09T22:10:05.486Z,4.73
2023-01-09T22:12:33.088Z,3.50
2023-01-09T22:15:02.160Z,3.50
2023-01-09T22:17:30.525Z,3.92
2023-01-09T22:19:58.096Z,4.13
2023-01-09T22:22:25.643Z,3.88
2023-01-09T22:24:53.717Z,4.20
2023-01-09T22:27:21.248Z,3.20
2023-01-09T22:29:49.019Z,3.90
2023-01-09T22:32:18.363Z,2.78
2023-01-09T22:34:45.933Z,1.70
2023-01-09T22:37:13.779Z,1.23
2023-01-09T22:39:41.421Z,2.83
2023-01-09T22:42:09.011Z,1.13
2023-01-09T22:44:36.587Z,4.32
2023-01-09T22:47:04.378Z,2.83
2023-01-09T22:49:41.093Z,9.98
2023-01-09T22:52:19.152Z,5.72
2023-01-09T22:54:50.580Z,3.60
2023-01-09T22:57:18.251Z,5.75
2023-01-09T22:59:45.820Z,11.20
2023-01-09T23:02:13.510Z,2.83
2023-01-09T23:04:42.474Z,1.90
2023-01-09T23:07:10.066Z,1.65
2023-01-09T23:09:37.727Z,2.08
2023-01-09T23:12:06.659Z,2.22
2023-01-09T23:14:36.611Z,1.35
2023-01-09T23:17:04.423Z,1.30
2023-01-09T23:19:32.586Z,1.20
2023-01-09T23:22:02.430Z,1.40
2023-01-09T23:24:30.445Z,1.20
2023-01-09T23:26:58.568Z,1.20
2023-01-09T23:29:26.970Z,1.20
2023-01-09T23:31:54.774Z,0.98
2023-01-09T23:34:24.319Z,1.10
2023-01-09T23:36:53.459Z,1.20
2023-01-09T23:39:22.433Z,1.05
2023-01-09T23:42:07.777Z,1.00
2023-01-09T23:44:36.389Z,1.00
2023-01-09T23:47:04.228Z,1.00
2023-01-09T23:49:31.850Z,0.80
2023-01-09T23:52:01.645Z,1.05
2023-01-09T23:54:30.672Z,0.80
2023-01-09T23:56:58.606Z,0.80
2023-01-09T23:59:26.267Z,0.90
